createdAt,value
2023-04-18T00:01:50.214Z,2.30
2023-04-18T00:04:20.631Z,2.85
2023-04-18T00:06:51.409Z,2.85
2023-04-18T00:09:18.286Z,2.58
2023-04-18T00:11:47.541Z,2.80
2023-04-18T00:14:14.497Z,2.55
2023-04-18T00:16:42.380Z,2.47
2023-04-18T00:19:09.520Z,2.58
2023-04-18T00:21:37.245Z,2.65
2023-04-18T00:24:04.229Z,2.55
2023-04-18T00:26:31.024Z,2.30
2023-04-18T00:28:57.895Z,2.90
2023-04-18T00:31:24.672Z,2.92
2023-04-18T00:33:51.384Z,2.60
2023-04-18T00:36:18.039Z,3.20
2023-04-18T00:38:45.215Z,2.50
2023-04-18T00:41:16.890Z,2.17
2023-04-18T00:43:43.680Z,2.75
2023-04-18T00:46:11.030Z,2.72
2023-04-18T00:48:39.181Z,3.30
2023-04-18T00:51:07.615Z,2.38
2023-04-18T00:53:36.078Z,2.90
2023-04-18T00:56:03.596Z,2.42
2023-04-18T00:58:32.249Z,2.55
2023-04-18T01:00:58.958Z,2.63
2023-04-18T01:03:26.621Z,2.47
2023-04-18T01:05:57.398Z,2.25
2023-04-18T01:08:25.091Z,2.47
2023-04-18T01:10:52.010Z,2.25
2023-04-18T01:13:20.656Z,2.70
2023-04-18T01:15:49.138Z,2.90
2023-04-18T01:18:16.984Z,2.30
2023-04-18T01:20:51.430Z,1.95
2023-04-18T01:23:20.382Z,2.13
2023-04-18T01:25:49.185Z,2.53
2023-04-18T01:28:19.705Z,2.60
2023-04-18T01:30:47.936Z,2.33
2023-04-18T01:33:14.630Z,2.42
2023-04-18T01:35:41.327Z,2.40
2023-04-18T01:38:08.056Z,2.00
2023-04-18T01:40:34.744Z,2.45
2023-04-18T01:43:01.548Z,2.35
2023-04-18T01:45:28.226Z,2.33
2023-04-18T01:47:54.928Z,2.50
2023-04-18T01:50:21.831Z,2.05
2023-04-18T01:52:48.510Z,2.63
2023-04-18T01:55:16.360Z,2.30
2023-04-18T01:57:43.074Z,2.85
2023-04-18T02:00:12.549Z,2.83
2023-04-18T02:02:42.683Z,3.08
2023-04-18T02:05:09.900Z,2.42
2023-04-18T02:07:38.884Z,2.92
2023-04-18T02:10:05.994Z,2.50
2023-04-18T02:15:57.669Z,2.70
2023-04-18T02:18:25.571Z,2.65
2023-04-18T02:20:52.560Z,2.83
2023-04-18T02:23:21.887Z,2.78
2023-04-18T02:25:48.848Z,2.88
2023-04-18T02:28:17.546Z,2.40
2023-04-18T02:30:44.543Z,2.30
2023-04-18T02:33:11.304Z,2.75
2023-04-18T02:35:38.679Z,2.70
2023-04-18T02:38:05.352Z,2.65
2023-04-18T02:40:32.083Z,2.45
2023-04-18T02:42:59.573Z,2.33
2023-04-18T02:45:26.484Z,2.88
2023-04-18T02:47:56.410Z,2.42
2023-04-18T02:50:24.833Z,2.55
2023-04-18T02:52:52.912Z,2.70
2023-04-18T02:55:22.233Z,2.90
2023-04-18T02:57:49.035Z,2.67
2023-04-18T03:00:53.610Z,2.78
2023-04-18T03:03:40.555Z,3.28
2023-04-18T03:09:04.283Z,2.42
2023-04-18T03:11:33.705Z,3.25
2023-04-18T03:14:00.447Z,2.65
2023-04-18T03:16:34.105Z,2.88
2023-04-18T03:19:02.740Z,2.83
2023-04-18T03:21:31.155Z,3.13
2023-04-18T03:23:58.021Z,3.03
2023-04-18T03:26:25.962Z,2.50
2023-04-18T03:28:54.946Z,2.75
2023-04-18T03:31:21.971Z,3.22
2023-04-18T03:33:49.194Z,3.00
2023-04-18T03:36:21.174Z,2.80
2023-04-18T03:38:47.924Z,2.92
2023-04-18T03:41:14.790Z,3.33
2023-04-18T03:43:41.704Z,2.78
2023-04-18T03:46:08.619Z,3.15
2023-04-18T03:48:37.501Z,3.00
2023-04-18T03:51:10.776Z,2.93
2023-04-18T03:53:38.816Z,3.03
2023-04-18T03:56:05.827Z,2.63
2023-04-18T03:58:46.118Z,2.58
2023-04-18T04:01:13.992Z,3.25
2023-04-18T04:03:40.752Z,3.22
2023-04-18T04:06:07.878Z,3.33
2023-04-18T04:08:34.552Z,3.25
2023-04-18T04:11:02.370Z,2.95
2023-04-18T04:13:29.556Z,3.15
2023-04-18T04:15:57.112Z,2.90
2023-04-18T04:18:29.910Z,3.70
2023-04-18T04:20:59.318Z,3.72
2023-04-18T04:24:15.187Z,3.03
2023-04-18T04:26:46.684Z,3.13
2023-04-18T04:29:17.914Z,3.00
2023-04-18T04:31:48.827Z,3.10
2023-04-18T04:34:29.847Z,3.13
2023-04-18T04:36:57.610Z,3.25
2023-04-18T04:39:26.680Z,3.38
2023-04-18T04:42:19.846Z,3.70
2023-04-18T04:44:55.258Z,3.05
2023-04-18T04:47:47.148Z,3.30
2023-04-18T04:50:15.627Z,3.70
2023-04-18T04:52:42.855Z,2.90
2023-04-18T04:55:10.942Z,3.35
2023-04-18T04:57:37.603Z,4.57
2023-04-18T05:00:20.892Z,3.40
2023-04-18T05:02:48.782Z,3.38
2023-04-18T05:05:15.930Z,3.45
2023-04-18T05:07:42.898Z,3.53
2023-04-18T05:10:12.596Z,3.00
2023-04-18T05:12:39.255Z,3.17
2023-04-18T05:15:06.540Z,3.78
2023-04-18T05:17:33.196Z,3.67
2023-04-18T05:19:59.856Z,3.13
2023-04-18T05:22:26.630Z,3.45
2023-04-18T05:24:53.250Z,3.22
2023-04-18T05:27:19.872Z,3.83
2023-04-18T05:29:47.849Z,3.60
2023-04-18T05:32:14.856Z,3.83
2023-04-18T05:34:42.274Z,3.95
2023-04-18T05:37:08.947Z,3.53
2023-04-18T05:39:35.859Z,3.85
2023-04-18T05:42:03.353Z,3.63
2023-04-18T05:44:30.255Z,3.60
2023-04-18T05:46:57.007Z,3.40
2023-04-18T05:49:23.788Z,3.67
2023-04-18T05:51:50.658Z,3.05
2023-04-18T05:54:17.390Z,3.85
2023-04-18T05:56:44.251Z,3.30
2023-04-18T05:59:11.266Z,3.30
2023-04-18T06:01:38.005Z,3.05
2023-04-18T06:04:04.993Z,3.85
2023-04-18T06:06:31.965Z,3.33
2023-04-18T06:08:59.852Z,3.40
2023-04-18T06:11:26.515Z,3.63
2023-04-18T06:13:55.861Z,3.65
2023-04-18T06:16:22.691Z,3.47
2023-04-18T06:18:49.557Z,3.60
2023-04-18T06:21:19.035Z,3.40
2023-04-18T06:23:45.819Z,3.45
2023-04-18T06:26:12.569Z,2.88
2023-04-18T06:28:41.264Z,3.13
2023-04-18T06:31:08.715Z,3.42
2023-04-18T06:33:37.738Z,2.92
2023-04-18T06:36:05.458Z,3.10
2023-04-18T06:38:32.462Z,3.30
2023-04-18T06:41:04.559Z,2.92
2023-04-18T06:43:31.341Z,3.08
2023-04-18T06:45:59.223Z,2.75
2023-04-18T06:48:26.029Z,2.70
2023-04-18T06:50:52.848Z,2.97
2023-04-18T06:53:19.800Z,2.83
2023-04-18T06:55:46.717Z,4.13
2023-04-18T06:59:06.470Z,3.42
2023-04-18T07:01:33.671Z,2.75
2023-04-18T07:04:00.912Z,3.63
2023-04-18T07:06:29.767Z,2.55
2023-04-18T07:09:00.156Z,2.60
2023-04-18T07:11:29.413Z,2.70
2023-04-18T07:13:59.110Z,3.20
2023-04-18T07:16:25.971Z,2.75
2023-04-18T07:19:42.278Z,2.85
2023-04-18T07:22:11.790Z,2.55
2023-04-18T07:24:39.420Z,3.80
2023-04-18T07:27:09.403Z,2.70
2023-04-18T07:29:36.298Z,3.10
2023-04-18T07:32:03.582Z,2.97
2023-04-18T07:34:30.624Z,2.90
2023-04-18T07:36:57.612Z,7.50
2023-04-18T07:39:24.415Z,3.17
2023-04-18T07:41:51.324Z,3.03
2023-04-18T07:44:18.572Z,2.63
2023-04-18T07:46:45.410Z,2.70
2023-04-18T07:49:12.232Z,3.63
2023-04-18T07:51:39.087Z,2.85
2023-04-18T07:58:24.775Z,2.40
2023-04-18T08:00:51.619Z,3.05
2023-04-18T08:03:18.732Z,2.97
2023-04-18T08:05:48.992Z,2.47
2023-04-18T08:08:16.890Z,2.47
2023-04-18T08:10:45.599Z,3.13
2023-04-18T08:13:13.241Z,3.00
2023-04-18T08:15:40.691Z,2.40
2023-04-18T08:19:10.178Z,2.65
2023-04-18T08:21:36.923Z,2.67
2023-04-18T08:24:03.730Z,3.65
2023-04-18T08:26:31.013Z,2.25
2023-04-18T08:29:00.516Z,2.60
2023-04-18T08:31:27.702Z,3.53
2023-04-18T08:33:54.423Z,3.30
2023-04-18T08:36:21.485Z,2.45
2023-04-18T08:38:48.211Z,3.08
2023-04-18T08:41:20.718Z,2.80
2023-04-18T08:43:54.286Z,2.90
2023-04-18T08:46:22.804Z,2.70
2023-04-18T08:48:51.411Z,2.67
2023-04-18T08:51:18.063Z,2.88
2023-04-18T08:53:45.150Z,2.88
2023-04-18T08:56:28.740Z,2.75
2023-04-18T08:59:04.085Z,2.42
2023-04-18T09:01:57.016Z,2.22
2023-04-18T09:04:45.687Z,2.10
2023-04-18T09:07:15.657Z,2.67
2023-04-18T09:09:54.055Z,2.47
2023-04-18T09:12:23.503Z,2.25
2023-04-18T09:14:52.294Z,2.42
2023-04-18T09:17:31.760Z,2.83
2023-04-18T09:19:59.953Z,2.25
2023-04-18T09:22:42.715Z,2.45
2023-04-18T09:25:09.656Z,2.22
2023-04-18T09:27:36.635Z,2.67
2023-04-18T09:30:03.667Z,2.38
2023-04-18T09:32:38.826Z,2.33
2023-04-18T09:35:05.791Z,2.40
2023-04-18T09:37:32.462Z,2.40
2023-04-18T09:39:59.158Z,2.65
2023-04-18T09:42:28.161Z,2.67
2023-04-18T09:44:59.885Z,1.95
2023-04-18T09:47:28.280Z,2.33
2023-04-18T09:49:57.788Z,2.55
2023-04-18T09:52:26.089Z,2.38
2023-04-18T09:55:05.913Z,2.78
2023-04-18T09:57:36.817Z,2.58
2023-04-18T10:00:13.874Z,2.88
2023-04-18T10:02:49.112Z,2.92
2023-04-18T10:12:53.358Z,2.40
2023-04-18T10:15:22.399Z,2.30
2023-04-18T10:18:05.345Z,2.22
2023-04-18T10:20:34.675Z,2.35
2023-04-18T10:23:34.900Z,2.25
2023-04-18T10:26:03.633Z,1.58
2023-04-18T10:28:54.267Z,1.88
2023-04-18T10:31:22.943Z,1.83
2023-04-18T10:34:03.213Z,1.52
2023-04-18T10:36:32.835Z,1.50
2023-04-18T10:39:03.072Z,1.70
2023-04-18T10:41:31.902Z,2.40
2023-04-18T10:44:11.367Z,2.03
2023-04-18T10:47:29.404Z,2.30
2023-04-18T10:49:57.543Z,2.08
2023-04-18T10:52:49.384Z,2.00
2023-04-18T10:55:18.572Z,1.58
2023-04-18T10:57:47.475Z,2.03
2023-04-18T11:00:17.373Z,2.85
2023-04-18T11:03:40.104Z,1.80
2023-04-18T11:06:07.071Z,1.50
2023-04-18T11:08:34.105Z,1.77
2023-04-18T11:11:03.335Z,1.77
2023-04-18T11:13:31.814Z,2.17
2023-04-18T11:15:58.632Z,2.97
2023-04-18T11:18:53.230Z,1.83
2023-04-18T11:21:20.203Z,1.48
2023-04-18T11:23:47.397Z,1.60
2023-04-18T11:26:17.574Z,1.80
2023-04-18T11:28:45.307Z,2.10
2023-04-18T11:31:16.091Z,1.55
2023-04-18T11:33:42.858Z,1.50
2023-04-18T11:40:16.365Z,1.90
2023-04-18T11:42:46.020Z,1.95
2023-04-18T11:45:14.873Z,2.40
2023-04-18T11:47:43.141Z,2.45
2023-04-18T11:50:11.996Z,2.40
2023-04-18T11:52:41.145Z,2.30
2023-04-18T11:55:13.434Z,2.67
2023-04-18T11:57:41.804Z,2.28
2023-04-18T12:00:10.322Z,2.40
2023-04-18T12:02:45.992Z,2.40
2023-04-18T12:05:24.295Z,2.45
2023-04-18T12:07:51.292Z,2.60
2023-04-18T12:10:29.949Z,3.58
2023-04-18T12:13:01.630Z,2.90
2023-04-18T12:15:30.072Z,3.60
2023-04-18T12:18:28.054Z,4.10
2023-04-18T12:20:55.030Z,3.38
2023-04-18T12:23:48.563Z,4.38
2023-04-18T12:26:21.131Z,3.28
2023-04-18T12:28:51.311Z,3.20
2023-04-18T12:31:18.209Z,3.38
2023-04-18T12:33:44.963Z,2.78
2023-04-18T12:36:11.776Z,3.08
2023-04-18T12:38:38.589Z,4.25
2023-04-18T12:41:11.251Z,3.58
2023-04-18T12:44:30.382Z,3.72
2023-04-18T12:46:31.934Z,3.80
2023-04-18T12:53:11.722Z,4.60
2023-04-18T12:55:38.776Z,3.40
2023-04-18T12:58:05.523Z,3.88
2023-04-18T13:00:32.865Z,3.58
2023-04-18T13:03:00.360Z,4.68
2023-04-18T13:05:34.203Z,4.90
2023-04-18T13:08:52.164Z,4.07
2023-04-18T13:11:20.654Z,2.53
2023-04-18T13:13:47.426Z,3.22
2023-04-18T13:16:48.753Z,4.32
2023-04-18T13:19:16.321Z,3.75
2023-04-18T13:21:43.439Z,3.90
2023-04-18T13:24:13.118Z,4.30
2023-04-18T13:26:40.017Z,4.22
2023-04-18T13:29:06.811Z,4.10
2023-04-18T13:31:33.953Z,3.40
2023-04-18T13:38:27.959Z,4.30
2023-04-18T13:41:08.628Z,4.60
2023-04-18T13:43:38.843Z,3.67
2023-04-18T13:46:07.196Z,4.15
2023-04-18T13:48:37.213Z,6.15
2023-04-18T13:51:08.569Z,4.10
2023-04-18T13:53:35.604Z,4.63
2023-04-18T13:56:04.919Z,4.30
2023-04-18T13:58:31.958Z,3.80
2023-04-18T14:00:58.862Z,3.75
2023-04-18T14:03:26.512Z,4.03
2023-04-18T14:06:11.717Z,3.78
2023-04-18T14:08:39.378Z,3.28
2023-04-18T14:11:06.181Z,3.80
2023-04-18T14:13:32.993Z,2.60
2023-04-18T14:16:00.280Z,2.90
2023-04-18T14:18:30.434Z,2.50
2023-04-18T14:20:58.762Z,2.75
2023-04-18T14:23:30.696Z,2.10
2023-04-18T14:25:58.025Z,2.33
2023-04-18T14:28:29.252Z,2.13
2023-04-18T14:31:02.960Z,3.08
2023-04-18T14:33:29.909Z,2.20
2023-04-18T14:35:56.789Z,1.98
2023-04-18T14:38:23.607Z,1.80
2023-04-18T14:40:50.414Z,1.80
2023-04-18T14:43:17.220Z,2.03
2023-04-18T14:46:13.302Z,1.88
2023-04-18T14:51:07.859Z,1.75
2023-04-18T14:53:35.024Z,2.20
2023-04-18T14:56:01.937Z,1.92
2023-04-18T14:58:37.459Z,2.15
2023-04-18T15:05:31.326Z,1.63
2023-04-18T15:07:58.701Z,2.00
2023-04-18T15:10:25.581Z,1.73
2023-04-18T15:12:52.586Z,1.88
2023-04-18T15:15:25.553Z,1.85
2023-04-18T15:17:52.395Z,1.40
2023-04-18T15:20:20.388Z,1.70
2023-04-18T15:22:48.187Z,1.95
2023-04-18T15:25:16.831Z,2.13
2023-04-18T15:27:43.623Z,1.95
2023-04-18T15:30:13.318Z,1.60
2023-04-18T15:32:43.031Z,2.00
2023-04-18T15:35:11.070Z,1.73
2023-04-18T15:37:40.611Z,1.60
2023-04-18T15:40:11.808Z,1.58
2023-04-18T15:42:39.672Z,1.60
2023-04-18T15:45:09.846Z,1.90
2023-04-18T15:47:37.229Z,2.00
2023-04-18T15:50:04.597Z,1.60
2023-04-18T15:52:31.383Z,1.77
2023-04-18T15:54:58.630Z,2.08
2023-04-18T15:57:25.556Z,2.13
2023-04-18T15:59:52.524Z,1.77
2023-04-18T16:02:19.472Z,2.00
2023-04-18T16:04:49.610Z,1.90
2023-04-18T16:07:17.105Z,1.77
2023-04-18T16:09:43.972Z,1.88
2023-04-18T16:12:10.863Z,1.85
2023-04-18T16:14:37.816Z,2.00
2023-04-18T16:17:04.864Z,1.63
2023-04-18T16:19:41.083Z,2.40
2023-04-18T16:22:08.029Z,1.90
2023-04-18T16:24:34.974Z,1.92
2023-04-18T16:27:02.839Z,2.00
2023-04-18T16:29:29.760Z,1.98
2023-04-18T16:31:57.574Z,2.47
2023-04-18T16:34:24.521Z,1.90
2023-04-18T16:36:51.499Z,1.77
2023-04-18T16:39:19.262Z,1.58
2023-04-18T16:41:46.173Z,2.03
2023-04-18T16:44:13.255Z,2.08
2023-04-18T16:46:40.256Z,2.38
2023-04-18T16:49:08.063Z,1.77
2023-04-18T16:51:37.167Z,1.90
2023-04-18T16:54:05.311Z,1.60
2023-04-18T16:56:32.317Z,1.45
2023-04-18T16:58:59.139Z,1.77
2023-04-18T17:01:28.126Z,1.27
2023-04-18T17:03:55.031Z,1.23
2023-04-18T17:06:22.705Z,1.67
2023-04-18T17:08:53.546Z,1.92
2023-04-18T17:11:21.106Z,1.40
2023-04-18T17:13:51.080Z,2.30
2023-04-18T17:16:18.085Z,1.30
2023-04-18T17:18:44.796Z,1.58
2023-04-18T17:21:12.581Z,1.50
2023-04-18T17:23:42.674Z,1.85
2023-04-18T17:26:11.467Z,1.40
2023-04-18T17:28:40.598Z,1.60
2023-04-18T17:31:09.020Z,1.15
2023-04-18T17:33:41.817Z,1.60
2023-04-18T17:36:11.673Z,1.52
2023-04-18T17:38:38.363Z,2.13
2023-04-18T17:41:05.732Z,1.95
2023-04-18T17:43:32.483Z,1.92
2023-04-18T17:46:00.440Z,2.40
2023-04-18T17:48:27.252Z,1.98
2023-04-18T17:50:53.978Z,1.80
2023-04-18T17:53:20.897Z,2.00
2023-04-18T17:55:52.228Z,2.10
2023-04-18T17:58:19.807Z,2.05
2023-04-18T18:00:46.571Z,2.13
2023-04-18T18:03:14.710Z,1.95
2023-04-18T18:05:42.277Z,2.30
2023-04-18T18:08:13.026Z,2.20
2023-04-18T18:10:40.008Z,1.83
2023-04-18T18:13:07.113Z,1.58
2023-04-18T18:15:33.997Z,2.03
2023-04-18T18:18:02.008Z,2.00
2023-04-18T18:20:29.412Z,2.00
2023-04-18T18:22:57.238Z,1.85
2023-04-18T18:25:23.972Z,1.83
2023-04-18T18:27:51.516Z,2.00
2023-04-18T18:30:19.011Z,2.28
2023-04-18T18:32:45.886Z,2.40
2023-04-18T18:35:13.063Z,2.05
2023-04-18T18:37:40.894Z,2.20
2023-04-18T18:40:08.512Z,2.08
2023-04-18T18:42:35.406Z,2.13
2023-04-18T18:45:03.431Z,1.77
2023-04-18T18:47:30.565Z,2.00
2023-04-18T18:49:57.400Z,2.38
2023-04-18T18:52:24.846Z,2.30
2023-04-18T18:54:53.018Z,1.98
2023-04-18T18:57:22.945Z,2.00
2023-04-18T18:59:50.284Z,2.00
2023-04-18T19:02:17.546Z,2.47
2023-04-18T19:04:44.738Z,1.80
2023-04-18T19:07:11.579Z,2.72
2023-04-18T19:09:38.486Z,1.88
2023-04-18T19:12:05.998Z,2.22
2023-04-18T19:14:36.104Z,2.38
2023-04-18T19:17:06.093Z,1.92
2023-04-18T19:19:35.803Z,2.15
2023-04-18T19:22:02.776Z,2.55
2023-04-18T19:24:29.580Z,2.30
2023-04-18T19:26:56.806Z,2.38
2023-04-18T19:29:23.647Z,2.72
2023-04-18T19:31:50.423Z,2.25
2023-04-18T19:34:18.951Z,2.58
2023-04-18T19:36:50.082Z,2.60
2023-04-18T19:39:18.231Z,2.45
2023-04-18T19:41:47.513Z,2.22
2023-04-18T19:44:17.558Z,2.40
2023-04-18T19:47:09.593Z,2.50
2023-04-18T19:49:39.559Z,2.33
2023-04-18T19:52:08.235Z,2.65
2023-04-18T19:54:37.585Z,2.50
2023-04-18T19:57:06.972Z,2.55
2023-04-18T20:06:33.979Z,2.60
2023-04-18T20:09:02.148Z,2.10
2023-04-18T20:11:29.246Z,2.45
2023-04-18T20:13:59.011Z,2.47
2023-04-18T20:16:29.969Z,2.92
2023-04-18T20:18:56.790Z,2.85
2023-04-18T20:21:23.705Z,2.28
2023-04-18T20:23:53.342Z,2.47
2023-04-18T20:26:20.214Z,2.40
2023-04-18T20:28:47.065Z,2.45
2023-04-18T20:31:15.388Z,2.50
2023-04-18T20:33:45.396Z,2.83
2023-04-18T20:36:14.131Z,2.53
2023-04-18T20:38:44.462Z,3.00
2023-04-18T20:41:15.078Z,2.97
2023-04-18T20:43:47.341Z,2.47
2023-04-18T20:46:21.418Z,2.20
2023-04-18T20:48:50.882Z,2.42
2023-04-18T20:51:34.339Z,2.45
2023-04-18T20:54:01.195Z,2.45
2023-04-18T20:56:28.132Z,2.55
2023-04-18T20:59:15.369Z,2.65
2023-04-18T21:01:44.502Z,2.45
2023-04-18T21:04:12.775Z,2.47
2023-04-18T21:06:52.363Z,2.67
2023-04-18T21:09:23.600Z,2.47
2023-04-18T21:11:52.569Z,2.42
2023-04-18T21:14:21.504Z,2.25
2023-04-18T21:16:55.584Z,2.20
2023-04-18T21:19:24.526Z,2.47
2023-04-18T21:21:51.580Z,2.72
2023-04-18T21:24:21.383Z,2.67
2023-04-18T21:26:55.017Z,2.35
2023-04-18T21:29:24.082Z,2.03
2023-04-18T21:31:51.689Z,1.88
2023-04-18T21:34:18.595Z,2.38
2023-04-18T21:36:52.857Z,2.40
2023-04-18T21:39:20.250Z,2.03
2023-04-18T21:41:51.432Z,2.00
2023-04-18T21:44:18.963Z,2.70
2023-04-18T21:46:45.658Z,1.80
2023-04-18T21:49:15.186Z,1.98
2023-04-18T21:51:42.119Z,2.13
2023-04-18T21:54:09.015Z,2.30
2023-04-18T21:56:35.807Z,2.00
2023-04-18T21:59:02.608Z,2.20
2023-04-18T22:01:29.428Z,2.05
2023-04-18T22:03:56.670Z,1.92
2023-04-18T22:06:23.539Z,1.90
2023-04-18T22:08:51.655Z,2.03
2023-04-18T22:11:19.025Z,2.00
2023-04-18T22:13:47.304Z,2.03
2023-04-18T22:16:14.107Z,2.05
2023-04-18T22:18:41.062Z,2.42
2023-04-18T22:21:09.572Z,2.03
2023-04-18T22:23:36.280Z,2.42
2023-04-18T22:26:03.037Z,2.28
2023-04-18T22:28:30.122Z,2.90
2023-04-18T22:30:57.006Z,2.55
2023-04-18T22:33:24.426Z,2.40
2023-04-18T22:35:51.283Z,2.63
2023-04-18T22:38:18.064Z,1.92
2023-04-18T22:40:44.848Z,2.30
2023-04-18T22:43:11.655Z,2.13
2023-04-18T22:45:38.396Z,2.30
2023-04-18T22:48:05.425Z,2.00
2023-04-18T22:50:32.289Z,2.05
2023-04-18T22:52:59.100Z,2.55
2023-04-18T22:55:25.808Z,2.00
2023-04-18T22:57:52.579Z,2.45
2023-04-18T23:00:19.728Z,2.45
2023-04-18T23:02:46.589Z,1.98
2023-04-18T23:05:15.538Z,1.40
2023-04-18T23:07:42.325Z,2.35
2023-04-18T23:10:09.592Z,1.95
2023-04-18T23:12:36.184Z,1.80
2023-04-18T23:15:02.876Z,2.10
2023-04-18T23:17:29.605Z,1.75
2023-04-18T23:19:56.309Z,2.35
2023-04-18T23:22:24.224Z,2.20
2023-04-18T23:24:52.036Z,2.10
2023-04-18T23:27:19.292Z,1.95
2023-04-18T23:29:48.280Z,2.00
2023-04-18T23:32:14.983Z,1.77
2023-04-18T23:34:41.841Z,2.15
2023-04-18T23:37:09.670Z,1.90
2023-04-18T23:39:36.361Z,2.00
2023-04-18T23:42:03.104Z,1.98
2023-04-18T23:44:29.977Z,2.08
2023-04-18T23:46:56.688Z,1.92
2023-04-18T23:49:23.480Z,2.20
2023-04-18T23:51:50.207Z,2.35
2023-04-18T23:54:16.898Z,2.15
2023-04-18T23:56:46.187Z,2.00
2023-04-18T23:59:12.846Z,1.95
